Time;durP1;ratioP1;P1;durP2;ratioP2;P2;SDS_P1;SDS_P2;PMS_P1;PMS_P2;Temp;Humidity;BMP_temperature;BMP_pressure;BME280_temperature;BME280_humidity;BME280_pressure;Samples;Min_cycle;Max_cycle;Signal;HPM_P1;HPM_P2
2023/10/17 00:01:34;;;;;;;2.97;2.10;;;;;;;8.40;57.43;63819.63;5071035;28;20215;-51
2023/10/17 00:06:48;;;;;;;4.33;2.17;;;;;;;8.43;58.66;63820.41;5070939;28;20208;-54
2023/10/17 00:09:24;;;;;;;7.73;2.27;;;;;;;8.40;58.28;63817.66;5069560;28;20197;-51
2023/10/17 00:14:23;;;;;;;3.90;2.10;;;;;;;8.43;58.37;63825.97;5070899;28;20197;-51
2023/10/17 00:16:50;;;;;;;3.13;2.83;;;;;;;8.47;57.32;63822.25;5070563;28;20212;-58
2023/10/17 00:19:17;;;;;;;2.63;1.70;;;;;;;8.48;57.87;63828.38;5070767;28;20200;-52
2023/10/17 00:21:42;;;;;;;8.03;2.20;;;;;;;8.36;58.26;63815.28;5069351;28;20222;-51
2023/10/17 00:24:09;;;;;;;2.67;1.90;;;;;;;8.37;58.84;63816.91;5069593;28;20193;-52
2023/10/17 00:26:36;;;;;;;2.73;2.10;;;;;;;8.30;59.00;63809.25;5070970;28;20274;-51
2023/10/17 00:29:05;;;;;;;9.13;1.87;;;;;;;8.36;59.28;63810.25;5070447;28;20216;-51
2023/10/17 00:31:35;;;;;;;5.07;2.10;;;;;;;8.39;59.60;63818.53;5070786;28;20211;-52
2023/10/17 00:34:01;;;;;;;4.90;1.97;;;;;;;8.46;59.84;63824.22;5072607;28;20208;-52
2023/10/17 00:36:27;;;;;;;4.43;1.93;;;;;;;8.64;60.44;63845.31;5074244;28;20728;-51
2023/10/17 00:39:10;;;;;;;3.43;1.80;;;;;;;8.60;60.79;63838.97;5074165;28;20205;-57
2023/10/17 00:42:09;;;;;;;2.50;2.17;;;;;;;8.54;61.76;63831.88;5074095;28;20212;-51
2023/10/17 00:44:36;;;;;;;4.17;2.70;;;;;;;8.41;61.06;63818.75;5073940;28;20212;-58
2023/10/17 00:47:05;;;;;;;2.63;1.80;;;;;;;8.43;61.75;63823.47;5074052;28;20225;-65
2023/10/17 00:49:40;;;;;;;2.37;1.77;;;;;;;8.48;60.79;63823.88;5074008;28;20246;-51
2023/10/17 00:52:15;;;;;;;5.40;2.07;;;;;;;8.57;61.17;63835.69;5073787;28;20262;-51
2023/10/17 00:54:42;;;;;;;1.83;1.70;;;;;;;8.68;61.04;63849.66;5074027;28;20200;-52
2023/10/17 00:57:09;;;;;;;4.23;1.77;;;;;;;8.53;61.73;63831.31;5073864;28;20233;-51
2023/10/17 00:59:35;;;;;;;4.47;1.93;;;;;;;8.46;62.95;63821.16;5072945;28;20196;-54
2023/10/17 01:02:08;;;;;;;2.43;1.87;;;;;;;8.40;63.60;63820.16;5073861;28;20757;-52
2023/10/17 01:04:39;;;;;;;1.87;1.60;;;;;;;8.44;63.51;63824.53;5073700;28;20213;-52
2023/10/17 01:07:10;;;;;;;6.73;2.90;;;;;;;8.54;63.83;63831.88;5073606;28;20584;-52
2023/10/17 01:09:37;;;;;;;5.33;1.87;;;;;;;8.52;65.21;63832.75;5073615;28;20262;-55
2023/10/17 01:12:11;;;;;;;3.87;2.47;;;;;;;8.54;63.93;63834.94;5073844;28;20212;-53
2023/10/17 01:14:37;;;;;;;3.67;1.93;;;;;;;8.46;64.73;63824.22;5073807;28;20204;-54
2023/10/17 01:17:15;;;;;;;2.53;1.70;;;;;;;8.32;66.78;63811.44;5073531;28;20683;-53
2023/10/17 01:19:41;;;;;;;4.07;2.00;;;;;;;8.36;66.37;63810.25;5073581;28;20280;-53
2023/10/17 01:22:06;;;;;;;4.80;2.00;;;;;;;8.45;66.11;63825.63;5073769;28;20561;-52
2023/10/17 01:24:32;;;;;;;3.30;2.13;;;;;;;8.37;67.01;63816.34;5073258;28;20641;-52
2023/10/17 01:26:59;;;;;;;3.83;2.00;;;;;;;8.40;68.02;63819.63;5073503;28;20236;-54
2023/10/17 01:29:25;;;;;;;5.00;2.07;;;;;;;8.39;67.39;63816.03;5073264;28;20189;-54
2023/10/17 01:31:51;;;;;;;1.90;1.70;;;;;;;8.48;67.94;63826.41;5073292;28;20231;-52
2023/10/17 01:34:18;;;;;;;4.13;2.20;;;;;;;8.41;68.08;63818.75;5073115;28;20204;-53
2023/10/17 01:36:43;;;;;;;3.20;1.73;;;;;;;8.40;68.55;63820.16;5073402;28;20209;-53
2023/10/17 01:39:09;;;;;;;2.93;1.90;;;;;;;8.28;69.70;63807.06;5073235;28;20578;-52
2023/10/17 01:41:36;;;;;;;4.47;1.97;;;;;;;8.31;70.92;63809.81;5073129;28;20216;-52
2023/10/17 01:44:02;;;;;;;3.43;2.00;;;;;;;8.14;71.87;63791.75;5073042;28;20200;-55
2023/10/17 01:46:31;;;;;;;3.53;2.50;;;;;;;8.18;73.09;63793.09;5073120;28;20565;-53
2023/10/17 01:49:00;;;;;;;5.97;2.50;;;;;;;8.25;73.61;63803.81;5072933;28;20254;-52
2023/10/17 01:51:27;;;;;;;3.70;2.13;;;;;;;8.24;73.34;63805.19;5072918;28;20217;-51
2023/10/17 01:53:53;;;;;;;2.40;1.83;;;;;;;8.26;73.68;63802.38;5072941;28;20208;-53
2023/10/17 01:56:26;;;;;;;5.23;2.10;;;;;;;8.38;73.44;63817.47;5071551;28;20216;-52
2023/10/17 01:58:55;;;;;;;4.27;2.63;;;;;;;8.29;75.03;63808.16;5073003;28;20622;-55
2023/10/17 02:01:26;;;;;;;2.70;1.87;;;;;;;8.34;74.64;63813.63;5072922;28;20201;-51
2023/10/17 02:03:52;;;;;;;4.77;2.27;;;;;;;8.33;75.13;63810.03;5072724;28;20235;-51
2023/10/17 02:06:19;;;;;;;3.00;1.70;;;;;;;8.36;76.21;63815.28;5072576;28;20235;-51
2023/10/17 02:08:46;;;;;;;3.83;2.10;;;;;;;8.25;77.85;63805.75;5072633;28;20200;-52
2023/10/17 02:11:18;;;;;;;6.83;2.07;;;;;;;8.33;76.84;63812.53;5072384;28;20212;-53
2023/10/17 02:13:45;;;;;;;3.30;1.90;;;;;;;8.44;75.12;63824.00;5072749;28;20203;-55
2023/10/17 02:16:12;;;;;;;5.40;2.30;;;;;;;8.44;77.52;63821.50;5072702;28;20207;-55
2023/10/17 02:18:38;;;;;;;3.77;2.00;;;;;;;8.42;76.61;63822.34;5072468;28;20262;-53
2023/10/17 02:21:04;;;;;;;5.30;2.20;;;;;;;8.34;78.23;63813.63;5072534;28;20266;-52
2023/10/17 02:23:40;;;;;;;3.03;2.03;;;;;;;8.54;76.04;63834.94;5072506;28;20224;-52
2023/10/17 02:26:12;;;;;;;4.23;2.60;;;;;;;8.46;76.52;63826.72;5072199;28;20224;-58
2023/10/17 02:28:47;;;;;;;3.30;1.90;;;;;;;8.41;78.45;63818.75;5072758;28;20196;-56
2023/10/17 02:31:13;;;;;;;4.93;2.03;;;;;;;8.46;78.11;63821.16;5072208;28;20211;-56
2023/10/17 02:33:42;;;;;;;5.73;2.30;;;;;;;8.57;77.93;63837.66;5070982;28;20340;-55
2023/10/17 02:36:13;;;;;;;2.53;2.07;;;;;;;8.53;79.25;63831.31;5072200;28;20772;-55
2023/10/17 02:38:41;;;;;;;4.40;1.90;;;;;;;8.55;77.92;63835.47;5072161;28;20207;-55
2023/10/17 02:41:13;;;;;;;2.37;2.17;;;;;;;8.52;78.96;63832.19;5070751;28;20283;-54
2023/10/17 02:43:40;;;;;;;2.70;2.00;;;;;;;8.53;79.56;63833.81;5072029;28;20204;-55
2023/10/17 02:46:06;;;;;;;4.37;2.30;;;;;;;8.59;78.23;63839.84;5071856;28;20205;-60
2023/10/17 02:48:39;;;;;;;2.93;1.77;;;;;;;8.57;79.37;63835.69;5072154;28;20197;-53
2023/10/17 02:51:11;;;;;;;2.70;2.30;;;;;;;8.61;78.42;63839.50;5071989;28;20226;-53
2023/10/17 02:53:42;;;;;;;6.00;1.90;;;;;;;8.62;79.94;63845.63;5070868;28;20201;-53
2023/10/17 02:56:46;;;;;;;6.20;2.20;;;;;;;8.73;77.87;63852.63;5071180;28;20292;-58
2023/10/17 02:59:06;;;;;;;4.03;2.47;;;;;;;8.98;76.84;63879.94;5069563;28;20698;-52
2023/10/17 03:01:37;;;;;;;7.80;2.23;;;;;;;8.86;75.91;63869.88;5071819;28;20220;-52
2023/10/17 03:04:08;;;;;;;4.43;2.23;;;;;;;8.76;78.91;63858.41;5071715;28;20326;-52
2023/10/17 03:06:40;;;;;;;5.10;2.27;;;;;;;8.73;79.04;63852.63;5071731;28;20233;-53
2023/10/17 03:09:33;;;;;;;4.87;2.43;;;;;;;8.74;78.88;63856.22;5071725;28;20165;-53
2023/10/17 03:17:07;;;;;;;3.30;2.50;;;;;;;8.87;79.54;63870.97;5071763;28;20212;-52
2023/10/17 03:19:33;;;;;;;3.90;2.50;;;;;;;8.87;79.99;63867.91;5071583;28;20209;-53
2023/10/17 03:22:16;;;;;;;5.50;2.60;;;;;;;8.84;80.82;63865.19;5071766;28;20303;-53
2023/10/17 03:24:51;;;;;;;3.57;2.00;;;;;;;8.86;81.00;63866.81;5071308;28;20216;-52
2023/10/17 03:30:08;;;;;;;3.03;2.50;;;;;;;8.81;81.96;63863.88;5071666;28;20207;-52
2023/10/17 03:32:33;;;;;;;3.37;2.33;;;;;;;8.70;83.27;63852.41;5071178;28;20220;-52
2023/10/17 03:35:02;;;;;;;3.97;2.47;;;;;;;8.62;83.27;63843.66;5071485;28;20212;-55
2023/10/17 03:37:28;;;;;;;3.83;2.80;;;;;;;8.63;84.91;63844.75;5070903;28;20254;-53
2023/10/17 03:39:56;;;;;;;7.43;2.57;;;;;;;8.65;85.26;63846.94;5071204;28;20200;-53
2023/10/17 03:45:12;;;;;;;5.20;3.33;;;;;;;8.83;83.82;63869.13;5071061;28;20236;-52
2023/10/17 03:47:37;;;;;;;4.37;2.60;;;;;;;8.83;84.35;63866.59;5070017;28;20686;-52
2023/10/17 03:50:07;;;;;;;5.20;2.87;;;;;;;8.90;85.12;63873.72;5069821;28;20212;-52
2023/10/17 03:52:33;;;;;;;10.23;2.90;;;;;;;8.85;85.58;63865.72;5071125;28;20318;-52
2023/10/17 03:54:58;;;;;;;5.03;2.57;;;;;;;8.83;85.37;63863.53;5071053;28;20319;-52
2023/10/17 03:57:27;;;;;;;7.70;2.70;;;;;;;9.06;83.73;63886.72;5070857;28;20217;-52
2023/10/17 03:59:56;;;;;;;5.37;3.10;;;;;;;9.05;83.26;63888.13;5070929;28;20252;-52
2023/10/17 04:02:24;;;;;;;3.63;2.83;;;;;;;9.05;83.19;63890.13;5070855;28;20213;-53
2023/10/17 04:04:53;;;;;;;3.40;2.83;;;;;;;9.00;83.50;63884.63;5070790;28;20224;-52
2023/10/17 04:07:26;;;;;;;5.77;2.80;;;;;;;8.95;84.71;63877.19;5070781;28;20219;-53
2023/10/17 04:09:53;;;;;;;4.03;2.80;;;;;;;9.02;84.19;63886.81;5070414;28;20276;-52
2023/10/17 04:12:31;;;;;;;7.63;3.13;;;;;;;9.07;83.62;63895.34;5070804;28;20217;-53
2023/10/17 04:15:04;;;;;;;8.73;3.43;;;;;;;8.96;84.40;63880.81;5069657;28;20205;-53
2023/10/17 04:17:31;;;;;;;7.87;3.13;;;;;;;8.96;84.99;63878.31;5069246;28;20608;-55
2023/10/17 04:20:11;;;;;;;4.23;2.97;;;;;;;8.93;85.74;63876.97;5070654;28;20200;-52
2023/10/17 04:22:40;;;;;;;3.47;3.03;;;;;;;8.93;86.58;63876.97;5070956;28;20212;-52
2023/10/17 04:25:20;;;;;;;6.27;3.47;;;;;;;8.94;87.46;63878.06;5069298;28;20240;-54
2023/10/17 04:27:54;;;;;;;6.50;3.27;;;;;;;8.88;87.50;63872.06;5070930;28;20212;-53
2023/10/17 04:30:29;;;;;;;7.23;2.80;;;;;;;8.89;86.97;63873.16;5069538;28;20211;-53
2023/10/17 04:32:59;;;;;;;5.10;3.03;;;;;;;8.89;87.05;63870.09;5070561;28;20204;-52
2023/10/17 04:35:25;;;;;;;6.63;3.03;;;;;;;8.91;87.86;63872.28;5070499;28;20205;-53
2023/10/17 04:40:38;;;;;;;4.70;2.60;;;;;;;8.97;87.96;63881.34;5070791;28;20716;-53
2023/10/17 04:45:55;;;;;;;2.87;2.57;;;;;;;9.09;88.32;63895.00;5070465;28;20272;-54
2023/10/17 04:48:32;;;;;;;8.67;2.50;;;;;;;9.16;87.17;63899.59;5069116;28;20220;-54
2023/10/17 04:51:07;;;;;;;10.37;3.47;;;;;;;9.15;85.24;63899.06;5069239;28;20249;-58
2023/10/17 04:53:48;;;;;;;6.77;2.77;;;;;;;9.02;85.80;63886.81;5070410;28;20285;-55
2023/10/17 04:56:18;;;;;;;5.30;2.70;;;;;;;8.89;87.24;63873.16;5069354;28;20318;-53
2023/10/17 05:01:34;;;;;;;5.50;2.60;;;;;;;8.82;89.30;63864.97;5070214;28;20297;-53
2023/10/17 05:04:02;;;;;;;7.67;3.30;;;;;;;9.01;100.00;63885.72;5070415;28;20201;-56
2023/10/17 06:17:49;;;;;;;7.40;2.93;;;;;;;10.06;82.70;63998.00;5073378;28;20223;-54
2023/10/17 06:20:59;;;;;;;4.73;2.97;;;;;;;10.25;81.09;64017.72;5072283;28;20632;-52
2023/10/17 06:24:06;;;;;;;9.10;3.07;;;;;;;10.50;79.42;64045.66;5072625;28;20713;-53
2023/10/17 06:34:17;;;;;;;6.77;3.40;;;;;;;10.63;78.53;64061.84;5072295;28;20250;-52
2023/10/17 06:36:44;;;;;;;6.57;2.73;;;;;;;10.83;77.17;64083.72;5072078;28;20295;-52
2023/10/17 06:39:17;;;;;;;4.67;2.27;;;;;;;11.01;76.52;64097.88;5072032;28;20196;-53
2023/10/17 06:41:44;;;;;;;3.27;2.60;;;;;;;11.19;74.56;64120.63;5072412;28;20216;-52
2023/10/17 06:44:11;;;;;;;3.17;2.47;;;;;;;11.32;72.84;64134.88;5072118;28;20247;-52
2023/10/17 06:46:40;;;;;;;7.07;2.70;;;;;;;11.23;74.14;64127.00;5072076;28;20212;-52
2023/10/17 06:49:09;;;;;;;5.80;3.30;;;;;;;11.26;75.11;64125.22;5072040;28;20666;-53
2023/10/17 06:51:49;;;;;;;4.40;3.03;;;;;;;11.25;73.96;64129.19;5071828;28;20756;-52
2023/10/17 06:54:15;;;;;;;6.93;2.70;;;;;;;11.37;72.72;64140.34;5070588;28;20224;-53
2023/10/17 06:56:49;;;;;;;4.03;2.03;;;;;;;11.29;72.47;64129.06;5070647;28;20224;-51
2023/10/17 06:59:29;;;;;;;6.13;2.63;;;;;;;11.53;70.46;64157.88;5072319;28;20203;-51
2023/10/17 07:02:10;;;;;;;6.17;1.97;;;;;;;11.17;72.18;64120.97;5071823;28;20234;-52
2023/10/17 07:04:37;;;;;;;6.93;2.13;;;;;;;11.22;73.49;64126.44;5070361;28;20216;-54
2023/10/17 07:07:10;;;;;;;6.20;1.80;;;;;;;11.41;72.10;64144.19;5071687;28;20221;-54
2023/10/17 07:09:39;;;;;;;7.37;2.47;;;;;;;11.42;70.98;64145.84;5071610;28;20193;-54
2023/10/17 07:12:13;;;;;;;8.00;2.37;;;;;;;11.39;72.60;64145.06;5071762;28;20282;-53
2023/10/17 07:14:40;;;;;;;5.03;1.90;;;;;;;11.56;69.88;64160.63;5071656;28;20203;-54
2023/10/17 07:17:49;;;;;;;4.47;2.00;;;;;;;11.36;72.50;64139.25;5070174;28;20251;-58
2023/10/17 07:20:12;;;;;;;2.17;1.80;;;;;;;11.33;73.48;64135.97;5063246;28;20199;-54
2023/10/17 07:22:40;;;;;;;8.10;2.97;;;;;;;11.47;71.49;64151.31;5071365;28;20265;-53
2023/10/17 07:25:16;;;;;;;2.10;1.77;;;;;;;11.44;69.87;64148.03;5071213;28;20241;-53
2023/10/17 07:27:44;;;;;;;4.50;1.90;;;;;;;11.42;70.38;64148.34;5071725;28;20262;-54
2023/10/17 07:30:13;;;;;;;3.97;1.53;;;;;;;11.49;69.90;64152.97;5070120;28;20174;-54
2023/10/17 07:32:49;;;;;;;4.53;2.10;;;;;;;11.67;70.00;64175.78;5071497;28;20220;-55
2023/10/17 07:35:24;;;;;;;5.30;2.37;;;;;;;11.74;67.42;64180.38;5071388;28;20189;-54
2023/10/17 07:37:55;;;;;;;4.80;2.10;;;;;;;11.88;68.56;64193.19;5071247;28;20245;-55
2023/10/17 07:43:07;;;;;;;8.10;2.43;;;;;;;12.04;68.88;64213.25;5071020;28;20216;-54
2023/10/17 07:45:42;;;;;;;4.20;2.27;;;;;;;12.19;68.27;64229.13;5071023;28;20221;-54
2023/10/17 07:48:21;;;;;;;2.47;1.87;;;;;;;12.20;66.99;64230.25;5069663;28;20283;-55
2023/10/17 07:50:52;;;;;;;3.63;1.80;;;;;;;12.03;67.64;64211.59;5071049;28;20200;-54
2023/10/17 07:53:21;;;;;;;4.17;1.63;;;;;;;11.98;63.21;64209.19;5069561;28;20216;-54
2023/10/17 07:55:49;;;;;;;4.30;1.60;;;;;;;11.94;63.68;64204.81;5071181;28;20189;-54
2023/10/17 07:58:35;;;;;;;4.10;1.50;;;;;;;11.69;63.80;64177.41;5071033;28;20216;-55
2023/10/17 08:01:04;;;;;;;4.03;1.37;;;;;;;11.83;63.83;64190.25;5070792;28;20269;-55
2023/10/17 08:03:29;;;;;;;4.17;2.60;;;;;;;12.07;63.49;64216.00;5069625;28;20262;-54
2023/10/17 08:06:05;;;;;;;2.23;1.50;;;;;;;12.07;63.01;64216.00;5070639;28;20212;-55
2023/10/17 08:08:42;;;;;;;4.33;1.30;;;;;;;11.90;62.64;64194.84;5070893;28;20192;-54
2023/10/17 08:11:08;;;;;;;1.97;1.40;;;;;;;11.74;63.55;64183.44;5070760;28;20219;-55
2023/10/17 08:13:34;;;;;;;3.27;1.30;;;;;;;11.70;64.55;64176.53;5070933;28;20205;-55
2023/10/17 08:16:07;;;;;;;7.07;1.67;;;;;;;11.72;62.92;64180.69;5069519;28;20204;-58
2023/10/17 08:18:39;;;;;;;2.47;1.67;;;;;;;11.63;63.16;64170.81;5070798;28;20224;-55
2023/10/17 08:23:46;;;;;;;4.10;1.20;;;;;;;11.56;63.26;64160.63;5070739;28;20253;-55
2023/10/17 08:26:13;;;;;;;2.93;1.60;;;;;;;11.65;65.13;64173.56;5069415;28;20798;-55
2023/10/17 08:31:22;;;;;;;3.70;1.40;;;;;;;11.90;62.30;64199.88;5070610;28;20193;-56
2023/10/17 08:36:48;;;;;;;2.60;1.60;;;;;;;11.58;63.70;64165.88;5070505;28;20239;-55
2023/10/17 08:42:11;;;;;;;3.47;2.27;;;;;;;11.72;63.11;64175.66;5070504;28;20216;-54
2023/10/17 08:44:39;;;;;;;3.23;1.93;;;;;;;11.69;62.37;64177.97;5070286;28;20671;-57
2023/10/17 08:47:05;;;;;;;5.80;1.73;;;;;;;11.85;62.22;64196.94;5068972;28;20232;-55
2023/10/17 08:49:31;;;;;;;4.70;1.67;;;;;;;11.74;62.18;64180.91;5068979;28;20232;-54
2023/10/17 08:51:57;;;;;;;2.37;1.83;;;;;;;11.91;61.75;64201.53;5070173;28;20230;-55
2023/10/17 08:54:30;;;;;;;5.03;1.53;;;;;;;11.87;61.96;64194.63;5071052;28;20636;-53
2023/10/17 08:57:00;;;;;;;4.37;2.40;;;;;;;11.90;62.34;64197.38;5074172;28;20295;-54
2023/10/17 09:02:03;;;;;;;2.47;1.60;;;;;;;11.95;61.31;64203.38;5073583;28;20212;-54
2023/10/17 09:04:33;;;;;;;6.37;1.90;;;;;;;11.97;61.29;64208.09;5072142;28;20251;-55
2023/10/17 09:07:04;;;;;;;3.03;1.77;;;;;;;11.99;61.67;64209.75;5072563;28;20209;-59
2023/10/17 09:09:33;;;;;;;4.47;1.87;;;;;;;12.09;63.13;64220.72;5072219;28;20205;-54
2023/10/17 09:12:03;;;;;;;3.83;1.87;;;;;;;12.32;60.89;64246.47;5073499;28;20285;-53
2023/10/17 09:14:43;;;;;;;2.33;1.80;;;;;;;12.15;60.29;64222.22;5072362;28;20331;-53
2023/10/17 09:17:51;;;;;;;4.50;1.53;;;;;;;12.13;60.57;64225.09;5073367;28;20208;-52
2023/10/17 09:20:06;;;;;;;4.13;1.80;;;;;;;12.08;61.20;64219.63;5065313;28;20220;-52
2023/10/17 09:22:32;;;;;;;2.87;1.77;;;;;;;12.15;60.84;64225.31;5073458;28;20240;-52
2023/10/17 09:24:59;;;;;;;4.43;1.50;;;;;;;12.26;61.21;64237.34;5073458;28;20633;-53
2023/10/17 09:27:31;;;;;;;4.53;1.60;;;;;;;12.28;60.73;64239.03;5073224;28;20304;-51
2023/10/17 09:29:59;;;;;;;5.80;1.90;;;;;;;12.11;60.83;64217.84;5073341;28;20200;-53
2023/10/17 09:32:37;;;;;;;4.97;1.90;;;;;;;12.10;61.86;64216.75;5073198;28;20593;-53
2023/10/17 09:35:14;;;;;;;5.23;1.80;;;;;;;12.27;60.96;64238.47;5073071;28;20212;-54
2023/10/17 09:37:44;;;;;;;3.27;1.57;;;;;;;12.28;60.79;64239.03;5073024;28;20212;-53
2023/10/17 09:40:12;;;;;;;3.03;1.70;;;;;;;12.37;60.12;64248.88;5073123;28;20204;-54
2023/10/17 09:42:45;;;;;;;3.27;1.40;;;;;;;12.28;60.07;64242.06;5073354;28;20240;-53
2023/10/17 09:45:13;;;;;;;3.77;1.63;;;;;;;12.27;59.72;64238.47;5073064;28;20236;-53
2023/10/17 09:47:45;;;;;;;2.50;1.53;;;;;;;12.24;59.59;64237.16;5073151;28;20225;-55
2023/10/17 09:50:21;;;;;;;5.30;2.07;;;;;;;12.17;60.39;64229.47;5072900;28;20236;-54
2023/10/17 09:52:51;;;;;;;5.30;1.73;;;;;;;12.30;60.60;64241.75;5072696;28;20216;-55
2023/10/17 09:55:23;;;;;;;3.17;1.50;;;;;;;12.44;59.92;64257.09;5072707;28;20193;-54
2023/10/17 09:57:54;;;;;;;2.03;1.80;;;;;;;12.49;59.88;64259.50;5072751;28;20221;-52
2023/10/17 10:00:40;;;;;;;3.73;1.63;;;;;;;12.63;58.96;64277.38;5072735;28;20209;-55
2023/10/17 10:03:07;;;;;;;3.00;1.73;;;;;;;12.67;58.07;64279.25;5073043;28;20224;-55
2023/10/17 10:05:32;;;;;;;4.40;2.00;;;;;;;12.58;59.55;64272.44;5071583;28;20372;-54
2023/10/17 10:08:28;;;;;;;3.50;1.90;;;;;;;12.70;57.81;64285.06;5072466;28;20303;-57
2023/10/17 10:10:53;;;;;;;3.30;1.90;;;;;;;12.64;58.79;64278.50;5072563;28;20204;-55
2023/10/17 10:13:20;;;;;;;2.90;1.67;;;;;;;12.77;58.03;64292.75;5072448;28;20216;-54
2023/10/17 10:15:54;;;;;;;2.50;1.70;;;;;;;12.77;57.00;64292.75;5072523;28;20223;-53
2023/10/17 10:18:35;;;;;;;11.57;2.07;;;;;;;12.72;58.04;64286.72;5070913;28;20245;-56
2023/10/17 10:21:07;;;;;;;3.85;1.75;;;;;;;12.71;58.41;64288.13;5071944;28;20200;-55
2023/10/17 10:23:41;;;;;;;3.40;1.80;;;;;;;12.91;57.64;64305.56;5072014;28;20220;-53
2023/10/17 10:26:12;;;;;;;5.80;1.73;;;;;;;12.95;57.45;64315.03;5070435;28;20217;-54
2023/10/17 10:28:38;;;;;;;3.25;1.83;;;;;;;12.91;58.24;64307.56;5070272;28;20710;-54
2023/10/17 10:31:21;;;;;;;2.38;1.70;;;;;;;12.98;58.46;64315.78;5070707;28;20240;-55
2023/10/17 10:33:55;;;;;;;6.57;2.10;;;;;;;12.93;57.72;64312.28;5072156;28;20262;-52
2023/10/17 10:36:25;;;;;;;2.90;2.00;;;;;;;13.03;57.73;64318.75;5070716;28;20213;-54
2023/10/17 10:38:53;;;;;;;3.40;1.70;;;;;;;13.00;56.71;64320.53;5070690;28;20197;-54
2023/10/17 10:41:22;;;;;;;3.83;1.97;;;;;;;12.91;57.12;64308.09;5071699;28;20231;-53
2023/10/17 10:43:57;;;;;;;6.47;1.77;;;;;;;12.92;57.11;64311.19;5070409;28;20295;-53
2023/10/17 10:46:23;;;;;;;4.45;1.73;;;;;;;12.80;57.52;64298.56;5071653;28;20328;-53
2023/10/17 10:48:53;;;;;;;2.13;1.60;;;;;;;12.71;57.81;64286.16;5070523;28;20205;-52
2023/10/17 10:51:24;;;;;;;4.33;2.00;;;;;;;12.83;57.14;64296.81;5071799;28;20222;-54
2023/10/17 10:53:56;;;;;;;3.35;2.25;;;;;;;12.82;58.35;64297.69;5072157;28;20235;-55
2023/10/17 10:56:26;;;;;;;2.28;1.83;;;;;;;12.88;58.34;64301.75;5071635;28;20220;-53
2023/10/17 10:58:55;;;;;;;2.97;1.53;;;;;;;12.97;58.24;64312.16;5071746;28;20196;-53
2023/10/17 11:01:22;;;;;;;3.40;2.08;;;;;;;12.98;59.26;64313.25;5071696;28;20258;-53
2023/10/17 11:03:50;;;;;;;5.13;2.38;;;;;;;13.04;57.92;64322.41;5071650;28;20239;-53
2023/10/17 11:06:23;;;;;;;3.67;2.10;;;;;;;13.08;59.62;64326.22;5071239;28;20674;-53
2023/10/17 11:08:49;;;;;;;4.83;2.33;;;;;;;13.24;58.13;64346.88;5071616;28;20200;-54
2023/10/17 11:11:16;;;;;;;2.63;2.03;;;;;;;13.25;57.78;64344.91;5071503;28;20684;-54
2023/10/17 11:13:47;;;;;;;2.85;2.40;;;;;;;13.36;56.85;64357.53;5071367;28;20292;-53
2023/10/17 11:16:16;;;;;;;5.18;1.80;;;;;;;13.11;58.01;64329.53;5071465;28;20262;-53
2023/10/17 11:18:45;;;;;;;4.70;2.30;;;;;;;13.25;58.61;64347.97;5070902;28;20193;-54
2023/10/17 11:21:12;;;;;;;2.28;1.70;;;;;;;13.23;60.08;64340.72;5071456;28;20212;-54
2023/10/17 11:23:41;;;;;;;4.90;2.30;;;;;;;13.25;59.06;64344.91;5071383;28;20201;-54
2023/10/17 11:26:11;;;;;;;3.17;1.80;;;;;;;13.30;58.37;64350.94;5071279;28;20223;-53
2023/10/17 11:28:42;;;;;;;4.63;2.10;;;;;;;13.30;59.53;64350.38;5071133;28;20209;-53
2023/10/17 11:31:21;;;;;;;5.70;2.05;;;;;;;13.39;59.55;64360.81;5071354;28;20208;-53
2023/10/17 11:33:58;;;;;;;3.83;2.65;;;;;;;13.42;57.20;64363.53;5071338;28;20211;-53
2023/10/17 11:36:25;;;;;;;5.38;2.20;;;;;;;13.29;57.70;64349.28;5069958;28;20215;-52
2023/10/17 11:38:58;;;;;;;2.72;2.45;;;;;;;13.35;57.17;64355.88;5069804;28;20224;-52
2023/10/17 11:41:39;;;;;;;11.60;2.25;;;;;;;13.17;57.87;64336.13;5071089;28;20354;-52
2023/10/17 11:44:06;;;;;;;3.45;2.00;;;;;;;13.16;58.08;64333.03;5069785;28;20690;-53
2023/10/17 11:46:33;;;;;;;4.43;1.95;;;;;;;13.07;59.12;64328.22;5071047;28;20224;-52
2023/10/17 11:49:29;;;;;;;7.05;2.33;;;;;;;13.13;58.29;64331.72;5071439;28;20177;-53
2023/10/17 11:52:02;;;;;;;4.53;2.13;;;;;;;13.23;57.16;64340.72;5071060;28;20221;-53
2023/10/17 11:54:29;;;;;;;5.93;2.20;;;;;;;13.06;57.59;64327.13;5070921;28;20204;-58
2023/10/17 11:56:55;;;;;;;2.80;2.33;;;;;;;13.02;57.47;64317.66;5071018;28;20217;-55
2023/10/17 11:59:25;;;;;;;5.13;2.40;;;;;;;12.89;58.64;64305.91;5069535;28;20219;-55
2023/10/17 12:01:54;;;;;;;4.63;2.43;;;;;;;12.89;59.41;64305.91;5070720;28;20213;-53
2023/10/17 12:04:19;;;;;;;3.13;1.90;;;;;;;12.92;59.65;64308.66;5070748;28;20196;-52
2023/10/17 12:06:48;;;;;;;5.97;2.67;;;;;;;12.95;58.95;64311.97;5069211;28;20316;-55
2023/10/17 12:09:23;;;;;;;6.77;2.37;;;;;;;13.04;59.72;64319.88;5070631;28;20188;-55
2023/10/17 12:11:51;;;;;;;2.43;1.80;;;;;;;13.06;58.19;64324.59;5070857;28;20216;-55
2023/10/17 12:14:20;;;;;;;5.43;1.80;;;;;;;12.99;57.70;64316.88;5070832;28;20212;-54
2023/10/17 12:17:00;;;;;;;5.67;1.80;;;;;;;12.96;57.34;64313.59;5070589;28;20216;-54
2023/10/17 12:19:27;;;;;;;3.28;1.98;;;;;;;12.92;58.30;64309.22;5070796;28;20200;-55
2023/10/17 12:22:00;;;;;;;4.10;2.30;;;;;;;12.80;58.19;64296.06;5069232;28;20652;-51
2023/10/17 12:24:34;;;;;;;3.53;2.20;;;;;;;12.73;58.90;64287.81;5070482;28;20259;-54
2023/10/17 12:27:01;;;;;;;3.27;1.67;;;;;;;12.65;59.67;64279.59;5053260;28;20224;-54
2023/10/17 12:29:28;;;;;;;7.67;1.93;;;;;;;12.54;59.77;64270.06;5071204;28;20176;-55
2023/10/17 12:32:01;;;;;;;3.78;1.60;;;;;;;12.61;60.12;64277.72;5074010;28;20219;-55
2023/10/17 12:34:27;;;;;;;5.07;1.63;;;;;;;12.62;60.11;64276.31;5072691;28;20299;-54
2023/10/17 12:36:53;;;;;;;6.63;1.60;;;;;;;12.63;60.07;64275.41;5073841;28;20220;-54
2023/10/17 12:39:19;;;;;;;6.77;2.20;;;;;;;12.55;60.28;64266.09;5073940;28;20223;-54
2023/10/17 12:41:48;;;;;;;15.13;2.10;;;;;;;12.43;60.69;64253.47;5072595;28;20686;-52
2023/10/17 12:44:15;;;;;;;3.03;1.90;;;;;;;12.28;61.56;64239.56;5073730;28;20697;-54
2023/10/17 12:46:41;;;;;;;2.20;2.00;;;;;;;12.32;61.93;64241.41;5073878;28;20228;-53
2023/10/17 12:49:06;;;;;;;8.33;2.70;;;;;;;12.41;62.33;64256.34;5073764;28;20690;-54
2023/10/17 12:51:33;;;;;;;2.10;1.83;;;;;;;12.27;63.52;64238.47;5073689;28;20270;-53
2023/10/17 12:53:58;;;;;;;4.93;2.93;;;;;;;12.29;62.12;64242.63;5072367;28;20212;-53
2023/10/17 12:56:29;;;;;;;3.53;1.97;;;;;;;12.32;62.24;64243.41;5073281;28;20618;-53
2023/10/17 12:58:54;;;;;;;3.97;2.20;;;;;;;12.27;62.61;64235.94;5072323;28;20690;-52
2023/10/17 13:01:24;;;;;;;2.53;1.90;;;;;;;12.27;63.13;64238.47;5072052;28;20201;-53
2023/10/17 13:03:53;;;;;;;8.47;2.77;;;;;;;12.17;63.91;64229.47;5073377;28;20292;-53
2023/10/17 13:06:25;;;;;;;3.33;2.37;;;;;;;12.27;63.58;64237.91;5073159;28;20234;-54
2023/10/17 13:08:56;;;;;;;4.03;2.03;;;;;;;12.26;65.01;64236.81;5073488;28;20258;-53
2023/10/17 13:11:26;;;;;;;3.00;1.73;;;;;;;12.32;65.76;64241.41;5072235;28;20347;-55
2023/10/17 13:13:52;;;;;;;7.23;2.00;;;;;;;12.25;66.46;64238.25;5072260;28;20235;-56
2023/10/17 13:16:19;;;;;;;2.30;1.90;;;;;;;12.13;67.63;64223.13;5073437;28;20597;-55
2023/10/17 13:18:47;;;;;;;3.83;1.80;;;;;;;12.08;67.96;64220.16;5072250;28;20197;-51
2023/10/17 13:21:15;;;;;;;4.50;2.07;;;;;;;11.98;67.62;64206.66;5073296;28;20204;-53
2023/10/17 13:23:44;;;;;;;4.13;1.80;;;;;;;11.93;69.25;64200.63;5071923;28;20236;-52
2023/10/17 13:26:15;;;;;;;3.60;2.33;;;;;;;11.99;70.55;64207.22;5073193;28;20234;-52
2023/10/17 13:28:40;;;;;;;5.67;1.97;;;;;;;11.91;71.42;64200.97;5073189;28;20667;-53
2023/10/17 13:31:14;;;;;;;3.47;1.60;;;;;;;11.73;72.93;64179.84;5073068;28;20220;-54
2023/10/17 13:33:42;;;;;;;1.83;1.37;;;;;;;11.56;75.17;64161.16;5071759;28;20204;-56
2023/10/17 13:36:11;;;;;;;2.17;1.57;;;;;;;11.49;77.00;64156.00;5072780;28;20200;-53
2023/10/17 13:38:38;;;;;;;3.33;1.90;;;;;;;11.45;78.11;64151.63;5073023;28;20193;-54
2023/10/17 13:41:09;;;;;;;2.50;1.70;;;;;;;11.30;77.22;64132.69;5072618;28;20215;-59
2023/10/17 13:43:36;;;;;;;3.50;1.83;;;;;;;11.30;77.07;64132.69;5072840;28;20201;-53
2023/10/17 13:46:12;;;;;;;5.00;1.90;;;;;;;11.29;78.28;64133.56;5072686;28;20291;-53
2023/10/17 13:48:38;;;;;;;6.37;2.07;;;;;;;11.28;78.67;64129.94;5072932;28;20200;-54
2023/10/17 13:51:06;;;;;;;2.20;1.80;;;;;;;11.36;78.42;64141.22;5072699;28;20213;-53
2023/10/17 13:53:36;;;;;;;4.97;2.00;;;;;;;11.35;77.99;64138.16;5072665;28;20291;-54